Time,TemperatureF,DewpointF,PressureIn,WindDirection,WindDirectionDegrees,WindSpeedMPH,WindSpeedGustMPH,Humidity,HourlyPrecipIn,Conditions,Clouds,dailyrainin,SoftwareType,DateUTC
2013-08-09 00:02:00,53.0,-99.9,29.60,NE,40,2.0,4.0,-999,-99.99,,,-99.99,,2013-08-09 08:02:00,
2013-08-09 00:22:00,53.0,-99.9,29.60,ENE,75,3.0,6.0,-999,-99.99,,,-99.99,,2013-08-09 08:22:00,
2013-08-09 00:32:00,53.0,-99.9,29.60,ENE,75,3.0,6.0,-999,-99.99,,,-99.99,,2013-08-09 08:32:00,
2013-08-09 00:43:00,53.0,-99.9,29.59,SE,124,3.0,5.0,-999,-99.99,,,-99.99,,2013-08-09 08:43:00,
2013-08-09 00:53:00,53.0,-99.9,29.59,East,95,4.0,6.0,-999,-99.99,,,-99.99,,2013-08-09 08:53:00,
2013-08-09 01:02:00,53.0,-99.9,29.59,East,95,4.0,7.0,-999,-99.99,,,-99.99,,2013-08-09 09:02:00,
2013-08-09 01:32:00,54.0,-99.9,29.58,East,88,4.0,9.0,-999,-99.99,,,-99.99,,2013-08-09 09:32:00,
2013-08-09 01:43:00,54.0,-99.9,29.58,WSW,256,3.0,4.0,-999,-99.99,,,-99.99,,2013-08-09 09:43:00,
2013-08-09 01:52:00,54.0,-99.9,29.58,WSW,256,3.0,4.0,-999,-99.99,,,-99.99,,2013-08-09 09:52:00,
2013-08-09 02:01:00,54.0,-99.9,29.58,WSW,256,3.0,4.0,-999,-99.99,,,-99.99,,2013-08-09 10:01:00,
2013-08-09 02:32:00,53.0,-99.9,29.57,West,264,-999.0,1.0,-999,-99.99,,,-99.99,,2013-08-09 10:32:00,
2013-08-09 02:43:00,53.0,-99.9,29.57,SE,134,-999.0,-999.0,-999,-99.99,,,-99.99,,2013-08-09 10:43:00,
2013-08-09 03:11:00,53.0,-99.9,29.57,SW,218,-999.0,1.0,-999,-99.99,,,-99.99,,2013-08-09 11:11:00,
2013-08-09 03:22:00,53.0,-99.9,29.57,East,82,-999.0,-999.0,-999,-99.99,,,-99.99,,2013-08-09 11:22:00,
2013-08-09 03:33:00,53.0,-99.9,29.57,East,91,4.0,6.0,-999,-99.99,,,-99.99,,2013-08-09 11:33:00,
2013-08-09 03:43:00,53.0,-99.9,29.57,East,88,2.0,3.0,-999,-99.99,,,-99.99,,2013-08-09 11:43:00,
2013-08-09 04:02:00,53.0,-99.9,29.57,West,264,1.0,3.0,-999,-99.99,,,-99.99,,2013-08-09 12:02:00,
2013-08-09 04:22:00,53.0,-99.9,29.57,NNW,334,1.0,2.0,-999,-99.99,,,-99.99,,2013-08-09 12:22:00,
2013-08-09 04:32:00,53.0,-99.9,29.57,NNE,13,2.0,3.0,-999,-99.99,,,-99.99,,2013-08-09 12:32:00,
2013-08-09 04:43:00,53.0,-99.9,29.57,NNE,13,2.0,3.0,-999,-99.99,,,-99.99,,2013-08-09 12:43:00,
2013-08-09 05:43:00,53.0,-99.9,29.57,NNE,16,3.0,5.0,-999,-99.99,,,-99.99,,2013-08-09 13:43:00,
2013-08-09 06:11:00,52.0,-99.9,29.58,SE,126,1.0,2.0,-999,-99.99,,,-99.99,,2013-08-09 14:11:00,
2013-08-09 06:22:00,52.0,-99.9,29.58,NNE,19,2.0,2.0,-999,-99.99,,,-99.99,,2013-08-09 14:22:00,
2013-08-09 06:33:00,52.0,-99.9,29.58,NNE,19,2.0,2.0,-999,-99.99,,,-99.99,,2013-08-09 14:33:00,
2013-08-09 06:43:00,52.0,-99.9,29.58,ENE,75,-999.0,-999.0,-999,-99.99,,,-99.99,,2013-08-09 14:43:00,
2013-08-09 06:53:00,52.0,-99.9,29.59,East,79,-999.0,3.0,-999,-99.99,,,-99.99,,2013-08-09 14:53:00,
2013-08-09 07:02:00,52.0,-99.9,29.60,SSE,150,2.0,4.0,-999,-99.99,,,-99.99,,2013-08-09 15:02:00,
2013-08-09 07:22:00,52.0,-99.9,29.60,SW,229,2.0,6.0,-999,-99.99,,,-99.99,,2013-08-09 15:22:00,
2013-08-09 07:33:00,52.0,-99.9,29.60,SSW,206,-999.0,2.0,-999,-99.99,,,-99.99,,2013-08-09 15:33:00,
2013-08-09 07:44:00,52.0,-99.9,29.60,ENE,70,0.0,2.0,-999,-99.99,,,-99.99,,2013-08-09 15:44:00,
2013-08-09 08:11:00,53.0,-99.9,29.60,ESE,118,2.0,3.0,-999,-99.99,,,-99.99,,2013-08-09 16:11:00,
2013-08-09 08:22:00,52.0,-99.9,29.60,SSW,192,2.0,4.0,-999,-99.99,,,-99.99,,2013-08-09 16:22:00,
2013-08-09 08:32:00,52.0,-99.9,29.60,SE,144,3.0,4.0,-999,-99.99,,,-99.99,,2013-08-09 16:32:00,
2013-08-09 08:43:00,53.0,-99.9,29.60,NW,320,4.0,4.0,-999,-99.99,,,-99.99,,2013-08-09 16:43:00,
2013-08-09 08:53:00,53.0,-99.9,29.61,ESE,123,2.0,3.0,-999,-99.99,,,-99.99,,2013-08-09 16:53:00,
2013-08-09 09:02:00,53.0,-99.9,29.61,WSW,258,4.0,4.0,-999,-99.99,,,-99.99,,2013-08-09 17:02:00,
2013-08-09 11:02:00,57.0,-99.9,29.62,SSW,202,5.0,6.0,-999,-99.99,,,-99.99,,2013-08-09 19:02:00,
2013-08-09 12:02:00,60.0,-99.9,29.62,North,-999,-999.0,-999.0,-999,-99.99,,,-99.99,,2013-08-09 20:02:00,
2013-08-09 12:43:00,61.0,-99.9,29.63,North,-999,-999.0,-999.0,-999,-99.99,,,-99.99,,2013-08-09 20:43:00,
2013-08-09 13:02:00,60.0,-99.9,29.63,North,-999,-999.0,-999.0,-999,-99.99,,,-99.99,,2013-08-09 21:02:00,
2013-08-09 13:43:00,62.0,-99.9,29.63,North,-999,-999.0,-999.0,-999,-99.99,,,-99.99,,2013-08-09 21:43:00,
2013-08-09 14:02:00,63.0,-99.9,29.63,North,-999,-999.0,-999.0,-999,-99.99,,,-99.99,,2013-08-09 22:02:00,
2013-08-09 14:32:00,62.0,-99.9,29.64,ENE,70,5.0,10.0,-999,-99.99,,,-99.99,,2013-08-09 22:32:00,
2013-08-09 15:02:00,61.0,-99.9,29.65,North,-999,-999.0,-999.0,-999,-99.99,,,-99.99,,2013-08-09 23:02:00,
2013-08-09 15:22:00,61.0,-99.9,29.65,North,-999,-999.0,-999.0,-999,-99.99,,,-99.99,,2013-08-09 23:22:00,
2013-08-09 15:32:00,61.0,-99.9,29.66,North,-999,-999.0,-999.0,-999,-99.99,,,-99.99,,2013-08-09 23:32:00,
2013-08-09 15:43:00,61.0,-99.9,29.66,NE,42,5.0,7.0,-999,-99.99,,,-99.99,,2013-08-09 23:43:00,
2013-08-09 16:02:00,60.0,-99.9,29.66,NE,46,6.0,8.0,-999,-99.99,,,-99.99,,2013-08-10 00:02:00,
2013-08-09 16:33:00,60.0,-99.9,29.67,North,-999,-999.0,-999.0,-999,-99.99,,,-99.99,,2013-08-10 00:33:00,
2013-08-09 16:43:00,60.0,-99.9,29.67,North,-999,-999.0,-999.0,-999,-99.99,,,-99.99,,2013-08-10 00:43:00,
2013-08-09 17:02:00,59.0,-99.9,29.67,NNE,12,7.0,11.0,-999,-99.99,,,-99.99,,2013-08-10 01:02:00,
2013-08-09 17:22:00,60.0,-99.9,29.67,North,-999,-999.0,-999.0,-999,-99.99,,,-99.99,,2013-08-10 01:22:00,
2013-08-09 17:32:00,60.0,-99.9,29.67,NE,50,4.0,6.0,-999,-99.99,,,-99.99,,2013-08-10 01:32:00,
2013-08-09 17:43:00,60.0,-99.9,29.68,NNE,32,4.0,8.0,-999,-99.99,,,-99.99,,2013-08-10 01:43:00,
2013-08-09 17:53:00,60.0,-99.9,29.68,NNE,32,4.0,8.0,-999,-99.99,,,-99.99,,2013-08-10 01:53:00,
2013-08-09 18:03:00,59.0,-99.9,29.68,NNE,29,4.0,8.0,-999,-99.99,,,-99.99,,2013-08-10 02:03:00,
2013-08-09 18:11:00,59.0,-99.9,29.68,NNE,29,4.0,8.0,-999,-99.99,,,-99.99,,2013-08-10 02:11:00,
2013-08-09 18:21:00,59.0,-99.9,29.68,NNE,29,4.0,8.0,-999,-99.99,,,-99.99,,2013-08-10 02:21:00,
2013-08-09 18:32:00,59.0,-99.9,29.68,NNE,29,4.0,8.0,-999,-99.99,,,-99.99,,2013-08-10 02:32:00,
2013-08-09 18:42:00,59.0,-99.9,29.68,NE,50,6.0,8.0,-999,-99.99,,,-99.99,,2013-08-10 02:42:00,
2013-08-09 18:52:00,59.0,-99.9,29.69,North,-999,-999.0,-999.0,-999,-99.99,,,-99.99,,2013-08-10 02:52:00,
2013-08-09 19:01:00,59.0,-99.9,29.69,North,-999,-999.0,-999.0,-999,-99.99,,,-99.99,,2013-08-10 03:01:00,
2013-08-09 19:11:00,59.0,-99.9,29.69,NNE,26,5.0,8.0,-999,-99.99,,,-99.99,,2013-08-10 03:11:00,
2013-08-09 19:22:00,59.0,-99.9,29.69,NNE,26,5.0,8.0,-999,-99.99,,,-99.99,,2013-08-10 03:22:00,
2013-08-09 19:32:00,58.0,-99.9,29.69,North,9,8.0,11.0,-999,-99.99,,,-99.99,,2013-08-10 03:32:00,
2013-08-09 19:42:00,58.0,-99.9,29.69,North,-999,-999.0,-999.0,-999,-99.99,,,-99.99,,2013-08-10 03:42:00,
2013-08-09 19:52:00,58.0,-99.9,29.69,North,-999,-999.0,-999.0,-999,-99.99,,,-99.99,,2013-08-10 03:52:00,
2013-08-09 20:02:00,59.0,-99.9,29.69,ENE,69,4.0,8.0,-999,-99.99,,,-99.99,,2013-08-10 04:02:00,
2013-08-09 20:12:00,57.0,-99.9,29.70,North,-999,-999.0,-999.0,-999,-99.99,,,-99.99,,2013-08-10 04:12:00,
2013-08-09 20:22:00,56.0,-99.9,29.70,SE,125,5.0,7.0,-999,-99.99,,,-99.99,,2013-08-10 04:22:00,
2013-08-09 20:32:00,56.0,-99.9,29.70,SE,125,5.0,7.0,-999,-99.99,,,-99.99,,2013-08-10 04:32:00,
2013-08-09 20:43:00,56.0,-99.9,29.70,ESE,114,0.0,6.0,-999,-99.99,,,-99.99,,2013-08-10 04:43:00,
2013-08-09 20:53:00,55.0,-99.9,29.71,NE,52,0.0,2.0,-999,-99.99,,,-99.99,,2013-08-10 04:53:00,
2013-08-09 21:02:00,55.0,-99.9,29.71,North,-999,-999.0,-999.0,-999,-99.99,,,-99.99,,2013-08-10 05:02:00,
2013-08-09 21:22:00,55.0,-99.9,29.71,East,82,3.0,4.0,-999,-99.99,,,-99.99,,2013-08-10 05:22:00,
2013-08-09 21:32:00,55.0,-99.9,29.71,ENE,58,2.0,3.0,-999,-99.99,,,-99.99,,2013-08-10 05:32:00,
2013-08-09 21:43:00,55.0,-99.9,29.72,NE,51,1.0,3.0,-999,-99.99,,,-99.99,,2013-08-10 05:43:00,
2013-08-09 21:52:00,55.0,-99.9,29.72,NE,51,1.0,3.0,-999,-99.99,,,-99.99,,2013-08-10 05:52:00,
2013-08-09 22:02:00,55.0,-99.9,29.72,NE,51,1.0,3.0,-999,-99.99,,,-99.99,,2013-08-10 06:02:00,
2013-08-09 22:11:00,55.0,-99.9,29.72,NE,51,1.0,3.0,-999,-99.99,,,-99.99,,2013-08-10 06:11:00,
2013-08-09 22:22:00,54.0,-99.9,29.72,SE,127,-999.0,-999.0,-999,-99.99,,,-99.99,,2013-08-10 06:22:00,
2013-08-09 22:32:00,54.0,-99.9,29.72,ESE,123,-999.0,-999.0,-999,-99.99,,,-99.99,,2013-08-10 06:32:00,
2013-08-09 22:44:00,54.0,-99.9,29.73,North,-999,-999.0,-999.0,-999,-99.99,,,-99.99,,2013-08-10 06:44:00,
2013-08-09 22:53:00,54.0,-99.9,29.73,North,-999,-999.0,-999.0,-999,-99.99,,,-99.99,,2013-08-10 06:53:00,
2013-08-09 23:02:00,54.0,-99.9,29.73,North,-999,-999.0,-999.0,-999,-99.99,,,-99.99,,2013-08-10 07:02:00,
2013-08-09 23:13:00,54.0,-99.9,29.73,North,-999,-999.0,-999.0,-999,-99.99,,,-99.99,,2013-08-10 07:13:00,
2013-08-09 23:22:00,55.0,-99.9,29.73,North,-999,-999.0,-999.0,-999,-99.99,,,-99.99,,2013-08-10 07:22:00,
2013-08-09 23:33:00,55.0,-99.9,29.73,North,-999,-999.0,-999.0,-999,-99.99,,,-99.99,,2013-08-10 07:33:00,
2013-08-09 23:43:00,54.0,-99.9,29.73,South,191,1.0,2.0,-999,-99.99,,,-99.99,,2013-08-10 07:43:00,